sensor_id;sensor_type;location;lat;lon;timestamp;pressure;altitude;pressure_sealevel;temperature;humidity
31585;BME280;18191;51.288;12.390;2024-03-22T00:01:39;49056.59;;;-144.47;91.31
31585;BME280;18191;51.288;12.390;2024-03-22T00:06:29;49052.59;;;-144.47;91.73
31585;BME280;18191;51.288;12.390;2024-03-22T00:11:20;49064.53;;;-144.47;91.73
31585;BME280;18191;51.288;12.390;2024-03-22T00:16:10;49064.53;;;-144.47;92.02
31585;BME280;18191;51.288;12.390;2024-03-22T00:21:00;49092.38;;;-144.47;91.61
31585;BME280;18191;51.288;12.390;2024-03-22T00:25:52;49044.66;;;-144.47;91.81
31585;BME280;18191;51.288;12.390;2024-03-22T00:30:42;49052.59;;;-144.47;92.37
31585;BME280;18191;51.288;12.390;2024-03-22T00:35:32;49048.63;;;-144.47;92.18
31585;BME280;18191;51.288;12.390;2024-03-22T00:40:22;49064.53;;;-144.47;92.40
31585;BME280;18191;51.288;12.390;2024-03-22T00:45:12;49040.66;;;-144.47;92.63
31585;BME280;18191;51.288;12.390;2024-03-22T00:50:03;49034.69;;;-144.47;93.01
31585;BME280;18191;51.288;12.390;2024-03-22T00:54:54;49056.59;;;-144.47;92.97
31585;BME280;18191;51.288;12.390;2024-03-22T00:59:44;49048.63;;;-144.47;93.03
31585;BME280;18191;51.288;12.390;2024-03-22T01:04:35;49048.63;;;-144.47;92.79
31585;BME280;18191;51.288;12.390;2024-03-22T01:09:25;49058.56;;;-144.47;93.27
31585;BME280;18191;51.288;12.390;2024-03-22T01:14:15;49074.47;;;-144.47;93.27
31585;BME280;18191;51.288;12.390;2024-03-22T01:19:06;49038.69;;;-144.47;93.47
31585;BME280;18191;51.288;12.390;2024-03-22T01:23:56;49040.66;;;-144.47;93.06
31585;BME280;18191;51.288;12.390;2024-03-22T01:28:46;49076.47;;;-144.47;93.26
31585;BME280;18191;51.288;12.390;2024-03-22T01:33:36;49036.69;;;-144.47;93.44
31585;BME280;18191;51.288;12.390;2024-03-22T01:38:26;49080.44;;;-144.47;93.86
31585;BME280;18191;51.288;12.390;2024-03-22T01:43:18;49046.63;;;-144.47;94.18
31585;BME280;18191;51.288;12.390;2024-03-22T01:48:08;49060.56;;;-144.47;94.49
31585;BME280;18191;51.288;12.390;2024-03-22T01:52:58;49044.66;;;-144.47;94.59
31585;BME280;18191;51.288;12.390;2024-03-22T01:57:49;49044.66;;;-144.47;94.69
31585;BME280;18191;51.288;12.390;2024-03-22T02:02:41;49080.44;;;-144.47;95.41
31585;BME280;18191;51.288;12.390;2024-03-22T02:07:32;49056.59;;;-144.47;94.66
31585;BME280;18191;51.288;12.390;2024-03-22T02:12:22;49062.56;;;-144.47;94.79
31585;BME280;18191;51.288;12.390;2024-03-22T02:17:16;49080.44;;;-144.47;94.66
31585;BME280;18191;51.288;12.390;2024-03-22T02:22:06;49044.66;;;-144.47;94.56
31585;BME280;18191;51.288;12.390;2024-03-22T02:26:56;49040.66;;;-144.47;94.66
31585;BME280;18191;51.288;12.390;2024-03-22T02:31:47;49036.69;;;-144.47;95.91
31585;BME280;18191;51.288;12.390;2024-03-22T02:36:37;49036.69;;;-144.47;97.46
31585;BME280;18191;51.288;12.390;2024-03-22T02:41:27;49030.72;;;-144.47;98.37
31585;BME280;18191;51.288;12.390;2024-03-22T02:46:17;49086.41;;;-144.47;98.29
31585;BME280;18191;51.288;12.390;2024-03-22T02:51:07;49042.66;;;-144.47;97.68
31585;BME280;18191;51.288;12.390;2024-03-22T02:55:59;49032.72;;;-144.47;97.22
31585;BME280;18191;51.288;12.390;2024-03-22T03:00:49;49076.47;;;-144.47;96.27
31585;BME280;18191;51.288;12.390;2024-03-22T03:05:41;49052.59;;;-144.47;95.95
31585;BME280;18191;51.288;12.390;2024-03-22T03:10:31;49032.72;;;-144.47;95.56
31585;BME280;18191;51.288;12.390;2024-03-22T03:15:21;49062.56;;;-144.47;96.56
31585;BME280;18191;51.288;12.390;2024-03-22T03:20:11;49058.56;;;-144.47;96.71
31585;BME280;18191;51.288;12.390;2024-03-22T03:25:03;49044.66;;;-144.47;97.22
31585;BME280;18191;51.288;12.390;2024-03-22T03:29:54;49076.47;;;-144.47;97.19
31585;BME280;18191;51.288;12.390;2024-03-22T03:34:44;49064.53;;;-144.47;97.37
31585;BME280;18191;51.288;12.390;2024-03-22T03:39:34;49024.75;;;-144.47;97.09
31585;BME280;18191;51.288;12.390;2024-03-22T03:44:24;49048.63;;;-144.47;96.62
31585;BME280;18191;51.288;12.390;2024-03-22T03:49:15;49028.72;;;-144.47;95.84
31585;BME280;18191;51.288;12.390;2024-03-22T03:54:05;49072.50;;;-144.47;94.99
31585;BME280;18191;51.288;12.390;2024-03-22T03:58:55;49062.56;;;-144.47;94.65
31585;BME280;18191;51.288;12.390;2024-03-22T04:03:46;49056.59;;;-144.47;94.97
31585;BME280;18191;51.288;12.390;2024-03-22T04:08:36;49058.56;;;-144.47;94.67
31585;BME280;18191;51.288;12.390;2024-03-22T04:13:26;49026.75;;;-144.47;94.45
31585;BME280;18191;51.288;12.390;2024-03-22T04:18:17;49090.41;;;-144.47;94.74
31585;BME280;18191;51.288;12.390;2024-03-22T04:23:07;49080.44;;;-144.47;94.69
31585;BME280;18191;51.288;12.390;2024-03-22T04:27:57;49100.34;;;-144.47;94.52
31585;BME280;18191;51.288;12.390;2024-03-22T04:32:47;49068.50;;;-144.47;95.09
31585;BME280;18191;51.288;12.390;2024-03-22T04:37:38;49080.44;;;-144.47;94.08
31585;BME280;18191;51.288;12.390;2024-03-22T04:42:28;49054.59;;;-144.47;93.73
31585;BME280;18191;51.288;12.390;2024-03-22T04:47:18;49052.59;;;-144.47;93.78
31585;BME280;18191;51.288;12.390;2024-03-22T04:52:08;49056.59;;;-144.47;93.79
31585;BME280;18191;51.288;12.390;2024-03-22T04:56:59;49082.44;;;-144.47;93.12
31585;BME280;18191;51.288;12.390;2024-03-22T05:01:49;49062.56;;;-144.47;93.24
31585;BME280;18191;51.288;12.390;2024-03-22T05:06:39;49084.44;;;-144.47;93.93
31585;BME280;18191;51.288;12.390;2024-03-22T05:11:29;49076.47;;;-144.47;92.86
31585;BME280;18191;51.288;12.390;2024-03-22T05:16:20;49056.59;;;-144.47;93.06
31585;BME280;18191;51.288;12.390;2024-03-22T05:21:10;49068.50;;;-144.47;93.39
31585;BME280;18191;51.288;12.390;2024-03-22T05:26:01;49084.44;;;-144.47;93.00
31585;BME280;18191;51.288;12.390;2024-03-22T05:30:51;49068.50;;;-144.47;91.89
31585;BME280;18191;51.288;12.390;2024-03-22T05:35:41;49058.56;;;-144.47;91.81
31585;BME280;18191;51.288;12.390;2024-03-22T05:40:31;49036.69;;;-144.47;91.37
31585;BME280;18191;51.288;12.390;2024-03-22T05:45:22;49032.72;;;-144.47;90.38
31585;BME280;18191;51.288;12.390;2024-03-22T05:50:12;49068.50;;;-144.47;89.84
31585;BME280;18191;51.288;12.390;2024-03-22T05:55:04;49056.59;;;-144.47;88.80
31585;BME280;18191;51.288;12.390;2024-03-22T05:59:55;49064.53;;;-144.47;87.93
31585;BME280;18191;51.288;12.390;2024-03-22T06:04:45;49064.53;;;-144.47;87.31
31585;BME280;18191;51.288;12.390;2024-03-22T06:09:35;49048.63;;;-144.47;86.69
31585;BME280;18191;51.288;12.390;2024-03-22T06:14:35;49048.63;;;-144.47;85.39
31585;BME280;18191;51.288;12.390;2024-03-22T06:19:26;49054.59;;;-144.47;85.14
31585;BME280;18191;51.288;12.390;2024-03-22T06:24:16;49044.66;;;-144.47;83.36
31585;BME280;18191;51.288;12.390;2024-03-22T06:29:06;49022.75;;;-144.47;83.04
31585;BME280;18191;51.288;12.390;2024-03-22T06:33:56;49028.72;;;-144.47;81.92
31585;BME280;18191;51.288;12.390;2024-03-22T06:38:52;49028.72;;;-144.47;80.37
31585;BME280;18191;51.288;12.390;2024-03-22T06:43:42;49000.88;;;-144.47;80.07
31585;BME280;18191;51.288;12.390;2024-03-22T06:48:32;49016.78;;;-144.47;78.59
31585;BME280;18191;51.288;12.390;2024-03-22T06:53:23;49042.66;;;-144.47;79.48
31585;BME280;18191;51.288;12.390;2024-03-22T06:58:15;49028.72;;;-144.47;78.10
31585;BME280;18191;51.288;12.390;2024-03-22T07:03:06;49060.56;;;-144.47;77.13
31585;BME280;18191;51.288;12.390;2024-03-22T07:07:56;49036.69;;;-144.47;76.39
31585;BME280;18191;51.288;12.390;2024-03-22T07:12:47;49048.63;;;-144.47;75.24
31585;BME280;18191;51.288;12.390;2024-03-22T07:17:37;49034.69;;;-144.47;74.89
31585;BME280;18191;51.288;12.390;2024-03-22T07:22:28;49010.81;;;-144.47;75.08
31585;BME280;18191;51.288;12.390;2024-03-22T07:27:18;48996.91;;;-144.47;75.51
31585;BME280;18191;51.288;12.390;2024-03-22T07:32:08;49048.63;;;-144.47;75.34
31585;BME280;18191;51.288;12.390;2024-03-22T07:36:59;49008.84;;;-144.47;74.94
31585;BME280;18191;51.288;12.390;2024-03-22T07:41:49;48996.91;;;-144.47;73.63
31585;BME280;18191;51.288;12.390;2024-03-22T07:46:39;49020.78;;;-144.47;72.50
31585;BME280;18191;51.288;12.390;2024-03-22T07:51:30;49020.78;;;-144.47;72.30
31585;BME280;18191;51.288;12.390;2024-03-22T07:56:20;48992.94;;;-144.47;71.99
31585;BME280;18191;51.288;12.390;2024-03-22T08:01:10;48967.06;;;-144.47;71.80
31585;BME280;18191;51.288;12.390;2024-03-22T08:06:00;48994.91;;;-144.47;71.22
31585;BME280;18191;51.288;12.390;2024-03-22T08:10:51;49020.78;;;-144.47;70.95
31585;BME280;18191;51.288;12.390;2024-03-22T08:15:41;48994.91;;;-144.47;68.42
31585;BME280;18191;51.288;12.390;2024-03-22T08:20:34;49028.72;;;-144.47;68.03
31585;BME280;18191;51.288;12.390;2024-03-22T08:25:24;48981.00;;;-144.47;67.56
31585;BME280;18191;51.288;12.390;2024-03-22T08:30:15;49016.78;;;-144.47;68.23
31585;BME280;18191;51.288;12.390;2024-03-22T08:35:05;49012.81;;;-144.47;66.61
31585;BME280;18191;51.288;12.390;2024-03-22T08:39:55;49016.78;;;-144.47;67.06
31585;BME280;18191;51.288;12.390;2024-03-22T08:44:45;49036.69;;;-144.47;66.00
31585;BME280;18191;51.288;12.390;2024-03-22T08:49:36;49028.72;;;-144.47;63.87
31585;BME280;18191;51.288;12.390;2024-03-22T08:54:26;49016.78;;;-144.47;63.18
31585;BME280;18191;51.288;12.390;2024-03-22T08:59:16;48973.03;;;-144.47;63.72
31585;BME280;18191;51.288;12.390;2024-03-22T09:04:06;49004.84;;;-144.47;64.07
31585;BME280;18191;51.288;12.390;2024-03-22T09:08:57;48996.91;;;-144.47;63.60
31585;BME280;18191;51.288;12.390;2024-03-22T09:13:47;49024.75;;;-144.47;63.51
31585;BME280;18191;51.288;12.390;2024-03-22T09:18:39;48988.94;;;-144.47;61.70
31585;BME280;18191;51.288;12.390;2024-03-22T09:23:29;49032.72;;;-144.47;62.15
31585;BME280;18191;51.288;12.390;2024-03-22T09:28:20;49024.75;;;-144.47;61.41
31585;BME280;18191;51.288;12.390;2024-03-22T09:33:10;48973.03;;;-144.47;61.36
31585;BME280;18191;51.288;12.390;2024-03-22T09:38:01;48994.91;;;-144.47;55.71
31585;BME280;18191;51.288;12.390;2024-03-22T09:42:52;49026.75;;;-144.47;55.66
31585;BME280;18191;51.288;12.390;2024-03-22T09:47:43;49020.78;;;-144.47;54.41
31585;BME280;18191;51.288;12.390;2024-03-22T09:52:36;48984.97;;;-144.47;55.22
31585;BME280;18191;51.288;12.390;2024-03-22T09:57:27;48996.91;;;-144.47;55.21
31585;BME280;18191;51.288;12.390;2024-03-22T10:02:18;48988.94;;;-144.47;54.80
31585;BME280;18191;51.288;12.390;2024-03-22T10:07:09;49012.81;;;-144.47;57.15
31585;BME280;18191;51.288;12.390;2024-03-22T10:12:00;49040.66;;;-144.47;56.66
31585;BME280;18191;51.288;12.390;2024-03-22T10:16:51;49002.88;;;-144.47;57.60
31585;BME280;18191;51.288;12.390;2024-03-22T10:21:43;48996.91;;;-144.47;56.43
31585;BME280;18191;51.288;12.390;2024-03-22T10:26:34;49010.81;;;-144.47;56.95
31585;BME280;18191;51.288;12.390;2024-03-22T10:31:24;48988.94;;;-144.47;55.94
31585;BME280;18191;51.288;12.390;2024-03-22T10:36:14;48984.97;;;-144.47;57.72
31585;BME280;18191;51.288;12.390;2024-03-22T10:41:06;49040.66;;;-144.47;58.72
31585;BME280;18191;51.288;12.390;2024-03-22T10:45:56;49024.75;;;-144.47;58.07
31585;BME280;18191;51.288;12.390;2024-03-22T10:50:50;49004.84;;;-144.47;56.92
31585;BME280;18191;51.288;12.390;2024-03-22T10:55:43;49022.75;;;-144.47;56.93
31585;BME280;18191;51.288;12.390;2024-03-22T11:00:35;49026.75;;;-144.47;56.45
31585;BME280;18191;51.288;12.390;2024-03-22T11:05:26;49016.78;;;-144.47;57.86
31585;BME280;18191;51.288;12.390;2024-03-22T11:10:16;48977.00;;;-144.47;55.66
31585;BME280;18191;51.288;12.390;2024-03-22T11:15:07;49008.84;;;-144.47;54.36
31585;BME280;18191;51.288;12.390;2024-03-22T11:19:59;49008.84;;;-144.47;53.65
31585;BME280;18191;51.288;12.390;2024-03-22T11:24:49;49024.75;;;-144.47;53.92
31585;BME280;18191;51.288;12.390;2024-03-22T11:29:40;49008.84;;;-144.47;51.96
31585;BME280;18191;51.288;12.390;2024-03-22T11:34:31;48984.97;;;-144.47;51.31
31585;BME280;18191;51.288;12.390;2024-03-22T11:39:22;48994.91;;;-144.47;49.59
31585;BME280;18191;51.288;12.390;2024-03-22T11:44:12;49032.72;;;-144.47;50.42
31585;BME280;18191;51.288;12.390;2024-03-22T11:49:02;49028.72;;;-144.47;50.54
31585;BME280;18191;51.288;12.390;2024-03-22T11:53:53;49010.81;;;-144.47;49.95
31585;BME280;18191;51.288;12.390;2024-03-22T11:58:46;49028.72;;;-144.47;53.09
31585;BME280;18191;51.288;12.390;2024-03-22T12:03:37;48992.94;;;-144.47;54.06
31585;BME280;18191;51.288;12.390;2024-03-22T12:08:28;49008.84;;;-144.47;52.65
31585;BME280;18191;51.288;12.390;2024-03-22T12:13:18;49020.78;;;-144.47;53.53
31585;BME280;18191;51.288;12.390;2024-03-22T12:18:09;49020.78;;;-144.47;51.54
31585;BME280;18191;51.288;12.390;2024-03-22T12:22:59;49036.69;;;-144.47;52.30
31585;BME280;18191;51.288;12.390;2024-03-22T12:27:49;49022.75;;;-144.47;53.21
31585;BME280;18191;51.288;12.390;2024-03-22T12:32:40;49006.84;;;-144.47;53.45
31585;BME280;18191;51.288;12.390;2024-03-22T12:37:30;49006.84;;;-144.47;53.53
31585;BME280;18191;51.288;12.390;2024-03-22T12:42:21;49028.72;;;-144.47;53.70
31585;BME280;18191;51.288;12.390;2024-03-22T12:47:11;49032.72;;;-144.47;52.83
31585;BME280;18191;51.288;12.390;2024-03-22T12:52:01;49008.84;;;-144.47;52.54
31585;BME280;18191;51.288;12.390;2024-03-22T12:56:51;49028.72;;;-144.47;54.17
31585;BME280;18191;51.288;12.390;2024-03-22T13:01:42;48996.91;;;-144.47;54.29
31585;BME280;18191;51.288;12.390;2024-03-22T13:06:32;49048.63;;;-144.47;54.91
31585;BME280;18191;51.288;12.390;2024-03-22T13:11:27;49048.63;;;-144.47;54.66
31585;BME280;18191;51.288;12.390;2024-03-22T13:16:17;49046.63;;;-144.47;55.33
31585;BME280;18191;51.288;12.390;2024-03-22T13:21:07;49024.75;;;-144.47;54.88
31585;BME280;18191;51.288;12.390;2024-03-22T13:26:02;48969.06;;;-144.47;54.60
31585;BME280;18191;51.288;12.390;2024-03-22T13:31:03;48977.00;;;-144.47;54.39
31585;BME280;18191;51.288;12.390;2024-03-22T13:35:53;49042.66;;;-144.47;54.45
31585;BME280;18191;51.288;12.390;2024-03-22T13:40:43;49044.66;;;-144.47;53.12
31585;BME280;18191;51.288;12.390;2024-03-22T13:45:41;49040.66;;;-144.47;52.20
31585;BME280;18191;51.288;12.390;2024-03-22T13:50:32;49044.66;;;-144.47;51.77
31585;BME280;18191;51.288;12.390;2024-03-22T13:55:24;48996.91;;;-144.47;51.21
31585;BME280;18191;51.288;12.390;2024-03-22T14:00:15;49044.66;;;-144.47;50.46
31585;BME280;18191;51.288;12.390;2024-03-22T14:05:05;49036.69;;;-144.47;51.85
31585;BME280;18191;51.288;12.390;2024-03-22T14:09:56;49002.88;;;-144.47;53.36
31585;BME280;18191;51.288;12.390;2024-03-22T14:14:46;49030.72;;;-144.47;54.96
31585;BME280;18191;51.288;12.390;2024-03-22T14:19:37;49058.56;;;-144.47;54.94
31585;BME280;18191;51.288;12.390;2024-03-22T14:24:28;49036.69;;;-144.47;54.73
31585;BME280;18191;51.288;12.390;2024-03-22T14:29:20;48981.00;;;-144.47;55.72
31585;BME280;18191;51.288;12.390;2024-03-22T14:34:10;49066.53;;;-144.47;56.39
31585;BME280;18191;51.288;12.390;2024-03-22T14:39:00;49030.72;;;-144.47;57.58
31585;BME280;18191;51.288;12.390;2024-03-22T14:43:55;49024.75;;;-144.47;57.79
31585;BME280;18191;51.288;12.390;2024-03-22T14:48:46;49036.69;;;-144.47;60.32
31585;BME280;18191;51.288;12.390;2024-03-22T14:53:36;49010.81;;;-144.47;60.63
31585;BME280;18191;51.288;12.390;2024-03-22T14:58:26;49036.69;;;-144.47;62.57
31585;BME280;18191;51.288;12.390;2024-03-22T15:03:16;49052.59;;;-144.47;62.59
31585;BME280;18191;51.288;12.390;2024-03-22T15:08:08;49020.78;;;-144.47;64.07
31585;BME280;18191;51.288;12.390;2024-03-22T15:12:58;49056.59;;;-144.47;67.66
31585;BME280;18191;51.288;12.390;2024-03-22T15:17:48;49008.84;;;-144.47;67.34
31585;BME280;18191;51.288;12.390;2024-03-22T15:22:40;49016.78;;;-144.47;67.94
31585;BME280;18191;51.288;12.390;2024-03-22T15:27:30;49062.56;;;-144.47;68.20
31585;BME280;18191;51.288;12.390;2024-03-22T15:32:20;49022.75;;;-144.47;65.89
31585;BME280;18191;51.288;12.390;2024-03-22T15:37:12;49036.69;;;-144.47;67.13
31585;BME280;18191;51.288;12.390;2024-03-22T15:42:03;49082.44;;;-144.47;67.91
31585;BME280;18191;51.288;12.390;2024-03-22T15:46:53;49076.47;;;-144.47;69.41
31585;BME280;18191;51.288;12.390;2024-03-22T15:51:44;49038.69;;;-144.47;69.76
31585;BME280;18191;51.288;12.390;2024-03-22T15:56:34;49028.72;;;-144.47;70.06
31585;BME280;18191;51.288;12.390;2024-03-22T16:01:25;49028.72;;;-144.47;69.92
31585;BME280;18191;51.288;12.390;2024-03-22T16:06:16;49052.59;;;-144.47;70.42
31585;BME280;18191;51.288;12.390;2024-03-22T16:11:06;49024.75;;;-144.47;71.47
31585;BME280;18191;51.288;12.390;2024-03-22T16:15:56;49068.50;;;-144.47;72.69
31585;BME280;18191;51.288;12.390;2024-03-22T16:20:46;49028.72;;;-144.47;72.99
31585;BME280;18191;51.288;12.390;2024-03-22T16:25:37;49028.72;;;-144.47;73.81
31585;BME280;18191;51.288;12.390;2024-03-22T16:30:27;49062.56;;;-144.47;76.87
31585;BME280;18191;51.288;12.390;2024-03-22T16:35:18;49074.47;;;-144.47;77.64
31585;BME280;18191;51.288;12.390;2024-03-22T16:40:08;49052.59;;;-144.47;80.85
31585;BME280;18191;51.288;12.390;2024-03-22T16:44:59;49024.75;;;-144.47;81.02
31585;BME280;18191;51.288;12.390;2024-03-22T16:49:49;49040.66;;;-144.47;81.57
31585;BME280;18191;51.288;12.390;2024-03-22T16:54:40;49014.81;;;-144.47;81.99
31585;BME280;18191;51.288;12.390;2024-03-22T16:59:30;49052.59;;;-144.47;83.21
31585;BME280;18191;51.288;12.390;2024-03-22T17:04:20;49046.63;;;-144.47;85.69
31585;BME280;18191;51.288;12.390;2024-03-22T17:09:10;49060.56;;;-144.47;87.22
31585;BME280;18191;51.288;12.390;2024-03-22T17:14:01;49044.66;;;-144.47;87.03
31585;BME280;18191;51.288;12.390;2024-03-22T17:18:51;49072.50;;;-144.47;87.05
31585;BME280;18191;51.288;12.390;2024-03-22T17:23:43;49060.56;;;-144.47;88.35
31585;BME280;18191;51.288;12.390;2024-03-22T17:28:37;49060.56;;;-144.47;88.58
31585;BME280;18191;51.288;12.390;2024-03-22T17:33:27;49090.41;;;-144.47;89.97
31585;BME280;18191;51.288;12.390;2024-03-22T17:38:17;49068.50;;;-144.47;90.18
31585;BME280;18191;51.288;12.390;2024-03-22T17:43:07;49060.56;;;-144.47;89.69
31585;BME280;18191;51.288;12.390;2024-03-22T17:47:58;49086.41;;;-144.47;90.52
31585;BME280;18191;51.288;12.390;2024-03-22T17:52:52;49062.56;;;-144.47;92.03
31585;BME280;18191;51.288;12.390;2024-03-22T17:57:42;49048.63;;;-144.47;93.57
31585;BME280;18191;51.288;12.390;2024-03-22T18:02:32;49056.59;;;-144.47;93.41
31585;BME280;18191;51.288;12.390;2024-03-22T18:07:22;49068.50;;;-144.47;93.20
31585;BME280;18191;51.288;12.390;2024-03-22T18:12:13;49060.56;;;-144.47;93.78
31585;BME280;18191;51.288;12.390;2024-03-22T18:17:03;49072.50;;;-144.47;94.47
31585;BME280;18191;51.288;12.390;2024-03-22T18:21:54;49064.53;;;-144.47;94.40
31585;BME280;18191;51.288;12.390;2024-03-22T18:26:44;49084.44;;;-144.47;95.38
31585;BME280;18191;51.288;12.390;2024-03-22T18:31:38;49068.50;;;-144.47;96.08
31585;BME280;18191;51.288;12.390;2024-03-22T18:36:28;49054.59;;;-144.47;95.97
31585;BME280;18191;51.288;12.390;2024-03-22T18:41:22;49122.22;;;-144.47;95.69
31585;BME280;18191;51.288;12.390;2024-03-22T18:46:13;49088.41;;;-144.47;95.34
31585;BME280;18191;51.288;12.390;2024-03-22T18:51:03;49126.22;;;-144.47;95.46
31585;BME280;18191;51.288;12.390;2024-03-22T18:55:56;49094.38;;;-144.47;94.89
31585;BME280;18191;51.288;12.390;2024-03-22T19:00:47;49086.41;;;-144.47;94.18
31585;BME280;18191;51.288;12.390;2024-03-22T19:05:37;49060.56;;;-144.47;94.19
31585;BME280;18191;51.288;12.390;2024-03-22T19:10:28;49056.59;;;-144.47;94.10
31585;BME280;18191;51.288;12.390;2024-03-22T19:15:19;49088.41;;;-144.47;94.01
31585;BME280;18191;51.288;12.390;2024-03-22T19:20:10;49064.53;;;-144.47;94.14
31585;BME280;18191;51.288;12.390;2024-03-22T19:25:00;49060.56;;;-144.47;94.33
31585;BME280;18191;51.288;12.390;2024-03-22T19:29:51;49078.47;;;-144.47;94.47
31585;BME280;18191;51.288;12.390;2024-03-22T19:34:41;49056.59;;;-144.47;94.42
31585;BME280;18191;51.288;12.390;2024-03-22T19:39:31;49076.47;;;-144.47;95.13
31585;BME280;18191;51.288;12.390;2024-03-22T19:44:21;49036.69;;;-144.47;95.40
31585;BME280;18191;51.288;12.390;2024-03-22T19:49:11;49074.47;;;-144.47;95.57
31585;BME280;18191;51.288;12.390;2024-03-22T19:54:02;49080.44;;;-144.47;95.90
31585;BME280;18191;51.288;12.390;2024-03-22T19:58:52;49042.66;;;-144.47;96.01
31585;BME280;18191;51.288;12.390;2024-03-22T20:03:43;49092.38;;;-144.47;96.51
31585;BME280;18191;51.288;12.390;2024-03-22T20:08:33;49076.47;;;-144.47;96.90
31585;BME280;18191;51.288;12.390;2024-03-22T20:13:24;49080.44;;;-144.47;97.02
31585;BME280;18191;51.288;12.390;2024-03-22T20:18:14;49080.44;;;-144.47;97.02
31585;BME280;18191;51.288;12.390;2024-03-22T20:23:04;49086.41;;;-144.47;97.06
31585;BME280;18191;51.288;12.390;2024-03-22T20:27:56;49104.31;;;-144.47;96.51
31585;BME280;18191;51.288;12.390;2024-03-22T20:32:49;49118.25;;;-144.47;96.49
31585;BME280;18191;51.288;12.390;2024-03-22T20:37:40;49082.44;;;-144.47;97.03
